createdAt,value
2022-11-14T00:02:22.809Z,102049.85
2022-11-14T00:04:57.454Z,102055.58
2022-11-14T00:07:32.569Z,102057.09
2022-11-14T00:10:05.210Z,102060.15
2022-11-14T00:12:35.982Z,102059.36
2022-11-14T00:15:09.797Z,102061.38
2022-11-14T00:17:42.614Z,102057.88
2022-11-14T00:20:13.831Z,102062.34
2022-11-14T00:22:46.140Z,102062.48
2022-11-14T00:25:18.584Z,102062.14
2022-11-14T00:27:50.790Z,102056.85
2022-11-14T00:30:23.139Z,102058.41
2022-11-14T00:32:55.406Z,102050.69
2022-11-14T00:35:30.176Z,102055.14
2022-11-14T00:38:02.444Z,102054.96
2022-11-14T00:40:34.687Z,102053.48
2022-11-14T00:43:06.985Z,102052.20
2022-11-14T00:45:39.236Z,102052.30
2022-11-14T00:48:11.519Z,102054.95
2022-11-14T00:50:43.892Z,102050.20
2022-11-14T00:53:16.177Z,102051.12
2022-11-14T00:55:48.429Z,102048.62
2022-11-14T00:58:20.625Z,102049.52
2022-11-14T01:00:53.116Z,102046.36
2022-11-14T01:03:25.434Z,102042.88
2022-11-14T01:05:57.764Z,102040.26
2022-11-14T01:08:30.260Z,102036.98
2022-11-14T01:11:01.084Z,102033.97
2022-11-14T01:13:35.551Z,102035.88
2022-11-14T01:16:08.847Z,102032.20
2022-11-14T01:18:42.560Z,102030.90
2022-11-14T01:21:15.948Z,102027.81
2022-11-14T01:23:48.271Z,102024.11
2022-11-14T01:26:20.536Z,102024.27
2022-11-14T01:28:52.694Z,102025.69
2022-11-14T01:31:26.414Z,102021.61
2022-11-14T01:33:58.651Z,102021.58
2022-11-14T01:36:30.844Z,102014.27
2022-11-14T01:39:03.098Z,102018.81
2022-11-14T01:41:35.406Z,102017.98
2022-11-14T01:44:15.255Z,102015.40
2022-11-14T01:46:49.662Z,102014.62
2022-11-14T01:49:23.920Z,102012.44
2022-11-14T01:51:59.380Z,102015.76
2022-11-14T01:54:33.872Z,102016.71
2022-11-14T01:57:06.755Z,102017.86
2022-11-14T01:59:42.620Z,102018.11
2022-11-14T02:02:17.595Z,102018.44
2022-11-14T02:04:52.143Z,102012.30
2022-11-14T02:07:25.744Z,102010.08
2022-11-14T02:09:58.286Z,102010.55
2022-11-14T02:12:30.688Z,102008.85
2022-11-14T02:15:04.481Z,102009.13
2022-11-14T02:17:36.935Z,102012.50
2022-11-14T02:20:24.129Z,102010.73
2022-11-14T02:22:56.478Z,102007.14
2022-11-14T02:25:29.004Z,102013.65
2022-11-14T02:28:01.394Z,102012.27
2022-11-14T02:30:33.751Z,102016.52
2022-11-14T02:33:11.012Z,102013.54
2022-11-14T02:35:44.182Z,102014.65
2022-11-14T02:38:18.918Z,102010.84
2022-11-14T02:40:51.626Z,102011.08
2022-11-14T02:43:22.280Z,102014.89
2022-11-14T02:45:54.604Z,102017.71
2022-11-14T02:48:26.997Z,102017.88
2022-11-14T02:50:59.456Z,102021.86
2022-11-14T02:53:31.695Z,102016.13
2022-11-14T02:56:04.071Z,102014.89
2022-11-14T02:58:36.293Z,102018.00
2022-11-14T03:01:24.900Z,102014.89
2022-11-14T03:03:57.360Z,102014.06
2022-11-14T03:06:29.496Z,102017.96
2022-11-14T03:09:01.875Z,102023.27
2022-11-14T03:11:35.096Z,102033.86
2022-11-14T03:14:07.341Z,102040.33
2022-11-14T03:16:40.531Z,102043.65
2022-11-14T03:19:12.804Z,102046.44
2022-11-14T03:21:45.286Z,102043.46
2022-11-14T03:24:17.620Z,102047.98
2022-11-14T03:26:49.932Z,102048.84
2022-11-14T03:29:22.310Z,102048.77
2022-11-14T03:31:54.717Z,102051.03
2022-11-14T03:34:27.038Z,102046.77
2022-11-14T03:37:00.477Z,102045.72
2022-11-14T03:39:32.819Z,102045.34
2022-11-14T03:42:05.122Z,102043.16
2022-11-14T03:44:38.247Z,102043.55
2022-11-14T03:47:10.588Z,102043.09
2022-11-14T03:49:45.113Z,102043.34
2022-11-14T03:52:17.494Z,102042.71
2022-11-14T03:54:50.463Z,102038.95
2022-11-14T03:57:22.774Z,102039.04
2022-11-14T03:59:55.009Z,102039.66
2022-11-14T04:02:27.220Z,102042.50
2022-11-14T04:04:59.439Z,102038.20
2022-11-14T04:07:31.789Z,102045.34
2022-11-14T04:10:04.131Z,102044.34
2022-11-14T04:12:36.452Z,102040.98
2022-11-14T04:15:10.585Z,102039.83
2022-11-14T04:17:42.900Z,102042.27
2022-11-14T04:20:16.469Z,102043.06
2022-11-14T04:22:49.523Z,102042.91
2022-11-14T04:25:22.503Z,102042.85
2022-11-14T04:27:54.844Z,102047.89
2022-11-14T04:30:30.880Z,102047.88
2022-11-14T04:33:07.070Z,102049.20
2022-11-14T04:35:37.827Z,102048.09
2022-11-14T04:38:10.578Z,102050.98
2022-11-14T04:40:41.246Z,102049.72
2022-11-14T04:43:13.921Z,102053.69
2022-11-14T04:45:44.574Z,102055.93
2022-11-14T04:48:17.041Z,102055.95
2022-11-14T04:50:49.544Z,102059.61
2022-11-14T04:53:22.309Z,102066.11
2022-11-14T04:55:52.905Z,102063.47
2022-11-14T04:58:25.116Z,102070.85
2022-11-14T05:00:57.986Z,102073.59
2022-11-14T05:03:30.582Z,102076.39
2022-11-14T05:06:03.417Z,102076.31
2022-11-14T05:08:36.811Z,102080.04
2022-11-14T05:11:09.760Z,102082.45
2022-11-14T05:13:43.868Z,102086.37
2022-11-14T05:16:17.184Z,102083.92
2022-11-14T05:18:49.997Z,102082.20
2022-11-14T05:21:23.248Z,102088.08
2022-11-14T05:23:56.803Z,102083.95
2022-11-14T05:26:30.232Z,102084.85
2022-11-14T05:29:03.405Z,102085.17
2022-11-14T05:31:37.213Z,102085.91
2022-11-14T05:34:11.433Z,102083.90
2022-11-14T05:36:45.241Z,102089.20
2022-11-14T05:39:19.794Z,102090.85
2022-11-14T05:41:53.261Z,102093.45
2022-11-14T05:44:28.718Z,102094.55
2022-11-14T05:51:32.321Z,102094.19
2022-11-14T05:54:05.551Z,102099.83
2022-11-14T05:56:39.613Z,102102.29
2022-11-14T05:59:11.845Z,102108.85
2022-11-14T06:01:46.346Z,102110.84
2022-11-14T06:04:20.311Z,102113.17
2022-11-14T06:06:53.564Z,102110.83
2022-11-14T06:16:17.520Z,102112.86
2022-11-14T06:18:50.126Z,102110.29
2022-11-14T06:21:24.082Z,102112.20
2022-11-14T06:23:56.557Z,102112.06
2022-11-14T06:26:31.647Z,102111.77
2022-11-14T06:29:03.931Z,102111.86
2022-11-14T06:31:36.111Z,102113.83
2022-11-14T06:34:09.095Z,102109.97
2022-11-14T06:36:41.415Z,102114.58
2022-11-14T06:39:13.748Z,102112.75
2022-11-14T06:41:45.943Z,102114.39
2022-11-14T06:44:18.172Z,102116.79
2022-11-14T06:46:50.413Z,102116.48
2022-11-14T06:49:22.800Z,102110.98
2022-11-14T06:51:55.137Z,102111.22
2022-11-14T06:54:27.384Z,102111.56
2022-11-14T06:56:59.522Z,102112.73
2022-11-14T06:59:31.837Z,102114.09
2022-11-14T07:02:04.182Z,102110.30
2022-11-14T07:04:36.445Z,102110.02
2022-11-14T07:07:08.768Z,102109.63
2022-11-14T07:09:41.280Z,102109.05
2022-11-14T07:12:13.772Z,102109.27
2022-11-14T07:14:45.966Z,102105.70
2022-11-14T07:17:18.209Z,102108.86
2022-11-14T07:19:50.392Z,102108.14
2022-11-14T07:22:22.749Z,102104.34
2022-11-14T07:24:55.022Z,102106.54
2022-11-14T07:27:27.305Z,102105.34
2022-11-14T07:29:59.613Z,102109.51
2022-11-14T07:32:31.863Z,102108.48
2022-11-14T07:35:04.046Z,102101.80
2022-11-14T07:37:36.418Z,102098.92
2022-11-14T07:40:10.485Z,102095.30
2022-11-14T07:42:42.656Z,102093.99
2022-11-14T07:45:15.859Z,102092.52
2022-11-14T07:47:48.013Z,102091.29
2022-11-14T07:50:20.737Z,102092.39
2022-11-14T07:52:55.630Z,102094.11
2022-11-14T07:55:27.900Z,102095.12
2022-11-14T07:58:01.924Z,102095.75
2022-11-14T08:00:34.139Z,102095.77
2022-11-14T08:03:06.482Z,102094.81
2022-11-14T08:05:38.811Z,102089.08
2022-11-14T08:08:11.109Z,102088.38
2022-11-14T08:10:45.498Z,102084.70
2022-11-14T08:13:31.516Z,102089.53
2022-11-14T08:16:13.353Z,102088.44
2022-11-14T08:19:02.272Z,102086.58
2022-11-14T08:21:34.620Z,102088.42
2022-11-14T08:24:07.601Z,102086.68
2022-11-14T08:26:40.181Z,102084.56
2022-11-14T08:29:10.788Z,102081.01
2022-11-14T08:31:43.449Z,102081.29
2022-11-14T08:34:14.014Z,102084.59
2022-11-14T08:36:46.233Z,102087.66
2022-11-14T08:39:18.448Z,102085.60
2022-11-14T08:41:50.597Z,102085.73
2022-11-14T08:44:22.905Z,102084.27
2022-11-14T08:46:55.160Z,102082.41
2022-11-14T08:49:27.401Z,102078.66
2022-11-14T08:51:59.500Z,102078.91
2022-11-14T08:54:31.752Z,102076.39
2022-11-14T08:57:05.170Z,102073.17
2022-11-14T08:59:37.499Z,102072.33
2022-11-14T09:02:10.573Z,102068.80
2022-11-14T09:04:43.176Z,102072.70
2022-11-14T09:07:15.487Z,102072.82
2022-11-14T09:09:48.044Z,102068.17
2022-11-14T09:12:19.943Z,102067.71
2022-11-14T09:14:52.125Z,102064.04
2022-11-14T09:17:24.310Z,102063.48
2022-11-14T09:20:02.125Z,102061.08
2022-11-14T09:22:35.721Z,102058.00
2022-11-14T09:25:09.696Z,102051.34
2022-11-14T09:27:41.960Z,102050.13
2022-11-14T09:30:16.387Z,102048.98
2022-11-14T09:32:48.517Z,102048.42
2022-11-14T09:35:20.736Z,102047.61
2022-11-14T09:37:53.006Z,102043.19
2022-11-14T09:40:25.259Z,102038.98
2022-11-14T09:43:15.072Z,102039.48
2022-11-14T09:45:52.667Z,102036.40
2022-11-14T09:48:27.691Z,102035.34
2022-11-14T09:51:09.427Z,102032.39
2022-11-14T09:53:47.940Z,102033.59
2022-11-14T09:56:25.864Z,102032.46
2022-11-14T09:58:58.844Z,102029.28
2022-11-14T10:01:38.489Z,102030.08
2022-11-14T10:04:18.643Z,102022.46
2022-11-14T10:06:59.272Z,102013.42
2022-11-14T10:16:12.210Z,102001.67
2022-11-14T10:18:52.180Z,101996.97
2022-11-14T10:21:39.693Z,101996.05
2022-11-14T10:24:37.974Z,101992.70
2022-11-14T10:27:15.156Z,101991.31
2022-11-14T10:30:00.612Z,101984.15
2022-11-14T10:32:41.924Z,101986.77
2022-11-14T10:35:18.615Z,101984.30
2022-11-14T10:37:57.255Z,101979.98
2022-11-14T10:40:32.541Z,101982.79
2022-11-14T10:43:13.086Z,101978.39
2022-11-14T10:45:48.557Z,101974.73
2022-11-14T10:48:30.682Z,101972.73
2022-11-14T10:51:05.744Z,101969.13
2022-11-14T10:53:47.211Z,101967.66
2022-11-14T10:56:19.392Z,101962.74
2022-11-14T10:58:51.734Z,101963.39
2022-11-14T11:01:41.851Z,101960.54
2022-11-14T11:04:23.080Z,101957.54
2022-11-14T11:06:56.883Z,101952.79
2022-11-14T11:09:47.932Z,101958.14
2022-11-14T11:12:23.090Z,101956.98
2022-11-14T11:15:15.295Z,101954.30
2022-11-14T11:17:57.018Z,101953.31
2022-11-14T11:20:32.599Z,101953.40
2022-11-14T11:23:08.939Z,101949.31
2022-11-14T11:25:41.943Z,101946.54
2022-11-14T11:28:17.186Z,101944.09
2022-11-14T11:30:58.159Z,101945.11
2022-11-14T11:33:32.264Z,101939.81
2022-11-14T11:36:08.325Z,101937.48
2022-11-14T11:38:42.996Z,101939.02
2022-11-14T11:42:02.267Z,101935.79
2022-11-14T11:44:19.536Z,101935.59
2022-11-14T11:46:59.592Z,101934.48
2022-11-14T11:49:41.715Z,101934.27
2022-11-14T11:52:17.554Z,101932.95
2022-11-14T11:54:57.286Z,101928.66
2022-11-14T11:57:32.366Z,101926.87
2022-11-14T12:00:15.417Z,101926.97
2022-11-14T12:02:50.463Z,101926.30
2022-11-14T12:05:30.598Z,101921.94
2022-11-14T12:08:06.835Z,101920.83
2022-11-14T12:10:42.948Z,101919.06
2022-11-14T12:13:58.990Z,101914.73
2022-11-14T12:16:56.721Z,101911.83
2022-11-14T12:19:49.941Z,101912.02
2022-11-14T12:22:37.234Z,101911.13
2022-11-14T12:25:30.819Z,101907.66
2022-11-14T12:28:40.360Z,101905.66
2022-11-14T12:31:16.945Z,101903.86
2022-11-14T12:33:52.869Z,101903.27
2022-11-14T12:36:31.362Z,101905.18
2022-11-14T12:39:04.446Z,101902.56
2022-11-14T12:41:39.213Z,101903.90
2022-11-14T12:44:36.773Z,101902.09
2022-11-14T12:47:25.957Z,101902.69
2022-11-14T12:50:06.390Z,101900.67
2022-11-14T12:53:01.243Z,101903.07
2022-11-14T12:55:58.086Z,101905.18
2022-11-14T12:58:59.766Z,101900.73
2022-11-14T13:01:56.732Z,101903.77
2022-11-14T13:04:36.625Z,101903.17
2022-11-14T13:07:22.916Z,101902.14
2022-11-14T13:10:04.898Z,101902.90
2022-11-14T13:12:55.467Z,101898.34
2022-11-14T13:15:49.937Z,101895.98
2022-11-14T13:18:45.580Z,101896.99
2022-11-14T13:21:45.151Z,101897.31
2022-11-14T13:24:20.005Z,101894.42
2022-11-14T13:26:56.306Z,101891.98
2022-11-14T13:30:03.186Z,101892.74
2022-11-14T13:33:05.242Z,101892.34
2022-11-14T13:36:02.123Z,101893.61
2022-11-14T13:39:08.637Z,101892.75
2022-11-14T13:42:35.768Z,101889.77
2022-11-14T13:45:52.665Z,101888.03
2022-11-14T13:48:54.142Z,101882.64
2022-11-14T13:51:42.685Z,101881.18
2022-11-14T13:54:18.689Z,101878.02
2022-11-14T13:57:03.435Z,101881.10
2022-11-14T13:59:50.239Z,101880.59
2022-11-14T14:02:52.627Z,101877.96
2022-11-14T14:05:39.218Z,101880.65
2022-11-14T14:08:25.744Z,101879.02
2022-11-14T14:11:07.743Z,101884.22
2022-11-14T14:13:53.951Z,101876.98
2022-11-14T14:16:42.386Z,101874.89
2022-11-14T14:19:25.863Z,101871.70
2022-11-14T14:22:03.167Z,101874.15
2022-11-14T14:24:45.430Z,101873.44
2022-11-14T14:27:24.752Z,101866.57
2022-11-14T14:30:04.158Z,101864.04
2022-11-14T14:32:42.880Z,101862.52
2022-11-14T14:35:35.610Z,101860.29
2022-11-14T14:44:32.019Z,101859.00
2022-11-14T14:47:18.627Z,101859.77
2022-11-14T14:49:51.088Z,101857.67
2022-11-14T14:52:27.649Z,101856.46
2022-11-14T14:55:10.565Z,101855.59
2022-11-14T14:57:53.955Z,101855.02
2022-11-14T15:00:28.783Z,101856.58
2022-11-14T15:03:02.190Z,101855.25
2022-11-14T15:05:32.915Z,101850.90
2022-11-14T15:08:07.033Z,101846.94
2022-11-14T15:10:48.472Z,101846.73
2022-11-14T15:13:21.220Z,101847.22
2022-11-14T15:15:53.668Z,101849.00
2022-11-14T15:18:29.953Z,101846.25
2022-11-14T15:21:14.958Z,101846.05
2022-11-14T15:23:47.339Z,101845.90
2022-11-14T15:26:20.889Z,101847.55
2022-11-14T15:28:53.245Z,101848.30
2022-11-14T15:31:25.770Z,101846.50
2022-11-14T15:34:22.866Z,101850.27
2022-11-14T15:37:21.519Z,101851.65
2022-11-14T15:39:53.823Z,101854.96
2022-11-14T15:42:31.672Z,101859.21
2022-11-14T15:45:21.555Z,101858.73
2022-11-14T15:48:06.287Z,101860.77
2022-11-14T15:50:38.646Z,101861.37
2022-11-14T19:07:53.403Z,101835.17
2022-11-14T19:10:49.496Z,101836.27
2022-11-14T19:13:21.692Z,101838.48
2022-11-14T19:15:54.022Z,101841.23
2022-11-14T19:18:26.656Z,101840.38
2022-11-14T19:21:03.062Z,101843.48
2022-11-14T19:23:36.154Z,101837.65
2022-11-14T19:26:08.634Z,101833.41
2022-11-14T19:28:41.133Z,101830.62
2022-11-14T19:31:12.618Z,101832.11
2022-11-14T19:33:45.436Z,101827.27
2022-11-14T19:36:32.564Z,101828.79
2022-11-14T19:39:11.442Z,101828.92
2022-11-14T19:41:42.095Z,101826.90
2022-11-14T19:44:14.359Z,101829.08
2022-11-14T19:46:48.018Z,101831.42
2022-11-14T19:49:20.599Z,101835.79
2022-11-14T19:51:52.882Z,101835.14
2022-11-14T19:54:25.150Z,101833.67
2022-11-14T19:56:57.354Z,101833.90
2022-11-14T19:59:30.809Z,101836.05
2022-11-14T20:02:03.230Z,101830.19
2022-11-14T20:04:38.025Z,101833.02
2022-11-14T20:07:10.636Z,101834.36
2022-11-14T20:09:43.029Z,101838.89
2022-11-14T20:12:15.580Z,101835.58
2022-11-14T20:14:48.076Z,101832.59
2022-11-14T20:17:20.378Z,101831.71
2022-11-14T20:19:52.749Z,101831.75
2022-11-14T20:22:25.155Z,101830.95
2022-11-14T20:24:57.522Z,101825.48
2022-11-14T20:27:29.963Z,101822.91
2022-11-14T20:30:02.332Z,101822.20
2022-11-14T20:32:34.663Z,101820.58
2022-11-14T20:35:07.748Z,101818.44
2022-11-14T20:37:40.187Z,101815.55
2022-11-14T20:40:14.138Z,101813.91
2022-11-14T20:42:49.762Z,101811.23
2022-11-14T20:45:22.188Z,101808.95
2022-11-14T20:47:54.809Z,101809.95
2022-11-14T20:50:25.427Z,101805.98
2022-11-14T20:52:57.712Z,101801.70
2022-11-14T20:55:30.195Z,101797.30
2022-11-14T20:58:02.533Z,101794.74
2022-11-14T21:00:34.908Z,101790.70
2022-11-14T21:03:07.287Z,101791.23
2022-11-14T21:05:42.560Z,101793.73
2022-11-14T21:08:15.392Z,101792.45
2022-11-14T21:10:49.099Z,101794.67
2022-11-14T21:13:39.636Z,101795.11
2022-11-14T21:16:14.478Z,101794.52
2022-11-14T21:18:48.290Z,101798.61
2022-11-14T21:21:23.715Z,101799.89
2022-11-14T21:23:56.927Z,101796.16
2022-11-14T21:26:30.940Z,101798.55
2022-11-14T21:29:05.356Z,101796.46
2022-11-14T21:31:38.562Z,101793.53
2022-11-14T21:34:13.547Z,101795.60
2022-11-14T21:36:46.966Z,101794.73
2022-11-14T21:39:19.432Z,101793.29
2022-11-14T21:41:51.817Z,101789.83
2022-11-14T21:44:24.032Z,101787.20
2022-11-14T21:46:56.257Z,101785.11
2022-11-14T21:49:28.503Z,101781.51
2022-11-14T21:52:00.662Z,101783.27
2022-11-14T21:54:32.859Z,101779.03
2022-11-14T21:57:09.718Z,101781.25
2022-11-14T21:59:42.072Z,101777.61
2022-11-14T22:02:33.226Z,101775.15
2022-11-14T22:05:06.448Z,101777.25
2022-11-14T22:07:39.225Z,101774.35
2022-11-14T22:10:12.152Z,101774.73
2022-11-14T22:12:44.356Z,101771.63
2022-11-14T22:15:16.699Z,101766.82
2022-11-14T22:17:48.916Z,101759.78
2022-11-14T22:20:22.958Z,101760.13
2022-11-14T22:22:58.022Z,101756.65
2022-11-14T22:25:30.348Z,101755.70
2022-11-14T22:28:02.579Z,101746.98
2022-11-14T22:30:34.806Z,101748.38
2022-11-14T22:33:07.121Z,101742.02
2022-11-14T22:35:39.320Z,101738.82
2022-11-14T22:38:11.516Z,101737.52
2022-11-14T22:40:43.722Z,101731.69
2022-11-14T22:43:15.997Z,101728.29
2022-11-14T22:45:53.860Z,101721.73
2022-11-14T22:48:26.841Z,101718.30
2022-11-14T22:51:03.873Z,101716.90
2022-11-14T22:53:37.053Z,101714.35
2022-11-14T22:56:11.916Z,101715.11
2022-11-14T22:58:45.006Z,101709.70
2022-11-14T23:01:19.880Z,101711.61
2022-11-14T23:03:57.064Z,101708.73
2022-11-14T23:06:30.028Z,101708.08
2022-11-14T23:09:02.380Z,101704.90
2022-11-14T23:11:35.288Z,101704.61
2022-11-14T23:14:07.549Z,101706.27
2022-11-14T23:16:39.775Z,101708.27
2022-11-14T23:19:12.018Z,101704.29
2022-11-14T23:21:44.262Z,101706.12
2022-11-14T23:24:17.303Z,101702.59
2022-11-14T23:26:49.587Z,101697.86
2022-11-14T23:29:21.808Z,101698.38
2022-11-14T23:31:54.082Z,101698.65
2022-11-14T23:34:26.452Z,101695.20
2022-11-14T23:36:58.619Z,101694.53
2022-11-14T23:39:30.904Z,101692.92
2022-11-14T23:42:03.051Z,101692.05
2022-11-14T23:44:35.203Z,101689.30
2022-11-14T23:47:07.447Z,101684.91
2022-11-14T23:49:39.566Z,101681.30
2022-11-14T23:52:11.755Z,101682.20
2022-11-14T23:54:43.919Z,101677.36
2022-11-14T23:57:16.494Z,101676.20
2022-11-14T23:59:47.137Z,101676.11
